createdAt,value
2023-04-15T00:01:31.502Z,29
2023-04-15T00:06:31.514Z,31
2023-04-15T00:11:31.515Z,23
2023-04-15T00:16:31.505Z,25
2023-04-15T00:21:31.517Z,16
2023-04-15T00:26:31.506Z,19
2023-04-15T00:31:31.518Z,19
2023-04-15T00:36:31.519Z,27
2023-04-15T00:41:31.520Z,18
2023-04-15T00:46:31.521Z,25
2023-04-15T00:51:31.510Z,20
2023-04-15T00:56:31.522Z,22
2023-04-15T01:01:31.512Z,19
2023-04-15T01:06:31.524Z,21
2023-04-15T01:11:31.524Z,17
2023-04-15T01:16:31.514Z,17
2023-04-15T01:21:31.526Z,18
2023-04-15T01:26:31.516Z,13
2023-04-15T01:31:31.527Z,13
2023-04-15T01:36:31.528Z,20
2023-04-15T01:41:31.529Z,20
2023-04-15T01:46:31.530Z,16
2023-04-15T01:51:31.520Z,18
2023-04-15T01:56:31.582Z,17
2023-04-15T02:01:31.521Z,24
2023-04-15T02:06:31.574Z,16
2023-04-15T02:11:31.533Z,20
2023-04-15T02:16:31.534Z,24
2023-04-15T02:21:31.536Z,18
2023-04-15T02:26:31.525Z,17
2023-04-15T02:31:31.537Z,23
2023-04-15T02:36:31.527Z,22
2023-04-15T02:41:31.538Z,19
2023-04-15T02:46:31.539Z,25
2023-04-15T02:51:31.529Z,18
2023-04-15T02:56:31.541Z,20
2023-04-15T03:01:31.530Z,18
2023-04-15T03:06:31.542Z,23
2023-04-15T03:11:31.543Z,25
2023-04-15T03:16:31.544Z,27
2023-04-15T03:21:31.545Z,21
2023-04-15T03:26:31.534Z,23
2023-04-15T03:31:31.546Z,26
2023-04-15T03:36:31.536Z,25
2023-04-15T03:41:31.547Z,24
2023-04-15T03:46:31.548Z,27
2023-04-15T03:51:31.538Z,24
2023-04-15T03:56:31.550Z,22
2023-04-15T04:01:31.540Z,24
2023-04-15T04:06:31.551Z,20
2023-04-15T04:11:31.552Z,25
2023-04-15T04:16:31.553Z,33
2023-04-15T04:21:31.554Z,30
2023-04-15T04:26:31.544Z,27
2023-04-15T04:31:31.555Z,26
2023-04-15T04:36:31.545Z,26
2023-04-15T04:41:31.557Z,17
2023-04-15T04:46:31.557Z,24
2023-04-15T04:51:31.583Z,28
2023-04-15T04:56:31.560Z,35
2023-04-15T05:01:31.549Z,29
2023-04-15T05:06:31.561Z,33
2023-04-15T05:11:31.551Z,27
2023-04-15T05:16:31.562Z,29
2023-04-15T05:21:31.563Z,33
2023-04-15T05:26:31.553Z,40
2023-04-15T05:31:31.565Z,52
2023-04-15T05:36:31.555Z,55
2023-04-15T05:41:31.566Z,35
2023-04-15T05:46:31.567Z,57
2023-04-15T05:51:31.568Z,51
2023-04-15T05:56:31.569Z,53
2023-04-15T06:01:31.559Z,39
2023-04-15T06:06:31.570Z,44
2023-04-15T06:11:31.560Z,44
2023-04-15T06:16:31.572Z,42
2023-04-15T06:21:31.573Z,37
2023-04-15T06:26:31.563Z,50
2023-04-15T06:31:31.576Z,62
2023-04-15T06:36:31.565Z,47
2023-04-15T06:41:31.577Z,39
2023-04-15T06:46:31.578Z,49
2023-04-15T06:51:31.579Z,54
2023-04-15T06:56:31.581Z,55
2023-04-15T07:01:31.570Z,65
2023-04-15T07:06:31.582Z,66
2023-04-15T07:11:31.573Z,69
2023-04-15T07:16:31.585Z,94
2023-04-15T07:21:31.586Z,72
2023-04-15T07:26:31.576Z,69
2023-04-15T07:31:31.589Z,104
2023-04-15T07:36:31.579Z,78
2023-04-15T07:41:31.591Z,92
2023-04-15T07:46:31.592Z,102
2023-04-15T07:51:31.593Z,113
2023-04-15T07:56:31.643Z,107
2023-04-15T08:01:31.585Z,103
2023-04-15T08:06:31.598Z,95
2023-04-15T08:11:31.587Z,92
2023-04-15T08:16:31.600Z,90
2023-04-15T08:21:31.601Z,95
2023-04-15T08:26:31.602Z,110
2023-04-15T08:31:31.604Z,109
2023-04-15T08:36:31.594Z,107
2023-04-15T08:41:31.606Z,113
2023-04-15T08:46:31.597Z,116
2023-04-15T08:51:31.609Z,107
2023-04-15T08:56:31.611Z,108
2023-04-15T09:01:31.601Z,149
2023-04-15T09:06:31.614Z,112
2023-04-15T09:11:31.604Z,115
2023-04-15T09:16:31.616Z,131
2023-04-15T09:21:31.618Z,112
2023-04-15T09:26:31.619Z,136
2023-04-15T09:31:31.622Z,122
2023-04-15T09:36:31.612Z,118
2023-04-15T09:41:31.624Z,119
2023-04-15T09:46:31.615Z,128
2023-04-15T09:51:31.627Z,130
2023-04-15T09:56:31.628Z,149
2023-04-15T10:01:31.619Z,140
2023-04-15T10:06:31.632Z,108
2023-04-15T10:11:31.622Z,111
2023-04-15T10:16:31.635Z,102
2023-04-15T10:21:31.636Z,93
2023-04-15T10:26:31.638Z,86
2023-04-15T10:31:31.640Z,68
2023-04-15T10:36:31.630Z,91
2023-04-15T10:41:31.669Z,89
2023-04-15T10:46:31.633Z,110
2023-04-15T10:51:31.647Z,104
2023-04-15T10:56:31.647Z,83
2023-04-15T11:01:31.649Z,96
2023-04-15T11:06:31.651Z,97
2023-04-15T11:11:31.641Z,87
2023-04-15T11:16:31.654Z,60
2023-04-15T11:21:31.644Z,85
2023-04-15T11:26:31.657Z,80
2023-04-15T11:31:31.658Z,80
2023-04-15T11:36:31.649Z,66
2023-04-15T11:41:31.662Z,92
2023-04-15T11:46:31.652Z,84
2023-04-15T11:51:31.665Z,84
2023-04-15T11:56:31.666Z,70
2023-04-15T12:01:31.668Z,74
2023-04-15T12:06:31.670Z,91
2023-04-15T12:11:31.660Z,90
2023-04-15T12:16:31.672Z,85
2023-04-15T12:21:31.662Z,61
2023-04-15T12:26:31.675Z,56
2023-04-15T12:31:31.676Z,65
2023-04-15T12:36:31.667Z,62
2023-04-15T12:41:31.680Z,63
2023-04-15T12:46:31.670Z,59
2023-04-15T12:51:31.682Z,82
2023-04-15T12:56:31.683Z,86
2023-04-15T13:01:31.685Z,79
2023-04-15T13:06:31.734Z,70
2023-04-15T13:11:31.677Z,88
2023-04-15T13:16:31.690Z,55
2023-04-15T13:21:31.680Z,60
2023-04-15T13:26:31.740Z,69
2023-04-15T13:31:31.693Z,57
2023-04-15T13:36:31.695Z,67
2023-04-15T13:41:31.697Z,51
2023-04-15T13:46:31.687Z,35
2023-04-15T13:51:31.699Z,42
2023-04-15T13:56:31.690Z,39
2023-04-15T14:01:31.702Z,43
2023-04-15T14:06:31.703Z,44
2023-04-15T14:11:31.694Z,45
2023-04-15T14:16:31.707Z,54
2023-04-15T14:21:31.696Z,40
2023-04-15T14:26:31.709Z,63
2023-04-15T14:31:31.710Z,72
2023-04-15T14:36:31.712Z,71
2023-04-15T14:41:31.713Z,41
2023-04-15T14:46:31.703Z,52
2023-04-15T14:51:31.715Z,42
2023-04-15T14:56:31.706Z,66
2023-04-15T15:01:31.718Z,73
2023-04-15T15:06:31.720Z,76
2023-04-15T15:11:31.710Z,67
2023-04-15T15:16:31.722Z,45
2023-04-15T15:21:31.712Z,38
2023-04-15T15:26:31.724Z,53
2023-04-15T15:31:31.725Z,59
2023-04-15T15:36:31.727Z,33
2023-04-15T15:41:31.728Z,37
2023-04-15T15:46:31.718Z,51
2023-04-15T15:51:31.730Z,46
2023-04-15T15:56:31.720Z,56
2023-04-15T16:01:31.756Z,55
2023-04-15T16:06:31.733Z,51
2023-04-15T16:11:31.735Z,42
2023-04-15T16:16:31.736Z,41
2023-04-15T16:21:31.726Z,34
2023-04-15T16:26:31.738Z,46
2023-04-15T16:31:31.728Z,46
2023-04-15T16:36:31.740Z,48
2023-04-15T16:41:31.741Z,44
2023-04-15T16:46:31.731Z,45
2023-04-15T16:51:31.744Z,34
2023-04-15T16:56:31.733Z,34
2023-04-15T17:01:31.745Z,58
2023-04-15T17:06:31.746Z,61
2023-04-15T17:11:31.747Z,48
2023-04-15T17:16:31.749Z,42
2023-04-15T17:21:31.738Z,38
2023-04-15T17:26:31.750Z,39
2023-04-15T17:31:31.740Z,51
2023-04-15T17:36:31.752Z,40
2023-04-15T17:41:31.753Z,29
2023-04-15T17:46:31.744Z,38
2023-04-15T17:51:31.756Z,31
2023-04-15T17:56:31.746Z,41
2023-04-15T18:01:31.758Z,40
2023-04-15T18:06:31.758Z,38
2023-04-15T18:11:31.760Z,45
2023-04-15T18:16:31.761Z,52
2023-04-15T18:21:31.751Z,54
2023-04-15T18:26:31.763Z,58
2023-04-15T18:31:31.753Z,62
2023-04-15T18:36:31.765Z,43
2023-04-15T18:41:31.766Z,34
2023-04-15T18:46:31.816Z,39
2023-04-15T18:51:31.768Z,40
2023-04-15T18:56:31.758Z,49
2023-04-15T19:01:31.770Z,62
2023-04-15T19:06:31.760Z,55
2023-04-15T19:11:31.772Z,51
2023-04-15T19:16:31.773Z,37
2023-04-15T19:21:32.168Z,32
2023-04-15T19:26:31.775Z,24
2023-04-15T19:31:31.765Z,37
2023-04-15T19:36:31.777Z,30
2023-04-15T19:41:31.778Z,29
2023-04-15T19:46:31.779Z,35
2023-04-15T19:51:31.781Z,45
2023-04-15T19:56:31.770Z,37
2023-04-15T20:01:31.782Z,41
2023-04-15T20:11:31.784Z,41
2023-04-15T20:16:31.785Z,46
2023-04-15T20:21:38.178Z,26
2023-04-15T20:26:31.788Z,28
2023-04-15T20:31:31.777Z,29
2023-04-15T20:36:31.789Z,20
2023-04-15T20:41:31.790Z,14
2023-04-15T20:46:31.791Z,27
2023-04-15T20:51:31.793Z,27
2023-04-15T20:56:31.782Z,26
2023-04-15T21:01:31.794Z,41
2023-04-15T21:06:31.784Z,38
2023-04-15T21:11:31.820Z,20
2023-04-15T21:16:31.797Z,50
2023-04-15T21:21:44.164Z,37
2023-04-15T21:26:31.800Z,29
2023-04-15T21:31:31.789Z,34
2023-04-15T21:36:31.801Z,25
2023-04-15T21:41:31.791Z,21
2023-04-15T21:46:31.803Z,38
2023-04-15T21:51:31.804Z,26
2023-04-15T21:56:31.794Z,23
2023-04-15T22:01:31.807Z,27
2023-04-15T22:06:31.796Z,25
2023-04-15T22:11:31.808Z,33
2023-04-15T22:16:31.809Z,26
2023-04-15T22:21:50.165Z,25
2023-04-15T22:26:31.812Z,25
2023-04-15T22:31:31.802Z,21
2023-04-15T22:36:31.813Z,27
2023-04-15T22:41:31.804Z,26
2023-04-15T22:46:31.816Z,26
2023-04-15T22:51:31.816Z,20
2023-04-15T22:56:31.807Z,25
2023-04-15T23:01:31.819Z,20
2023-04-15T23:06:31.809Z,16
2023-04-15T23:11:31.821Z,32
2023-04-15T23:16:31.822Z,36
2023-04-15T23:21:56.175Z,29
2023-04-15T23:26:31.824Z,31
2023-04-15T23:31:31.814Z,32
2023-04-15T23:36:31.826Z,30
2023-04-15T23:41:31.816Z,23
2023-04-15T23:46:31.828Z,26
2023-04-15T23:51:31.829Z,14
2023-04-15T23:56:31.819Z,7
